PWSweather.com
Personal Weather Stations
Station Observations
KRMIDAS
Braemar, Lake Zurich, IL 60047

BraemarLake Zurich, IL 60047

Lat: 42.178, Lon: -88.102

Elevation: 837

Station Type: Davis Vantage Pro 2

http://tomkeramidas.com/cumulus/index.htm

Latest ConditionsUpdated 7:30:01 AM CDT Tuesday, Mar 31, 2015
Currently Today's Max Today's Min Today's Average
Temperature 39.8°F4.3°C 53.0°F11.7°C 38.9°F3.8°C 44.8°F7.1°C
Dew Point 37.9°F3.3°C 38.4°F3.6°C 35.9°F2.2°C 36.8°F2.7°C
Winds 6.0 mph NNW9.7 kmh NNW 10.0 mph SW16.1 kmh SW - 4.4 mph 7.1 kmh
Wind Gusts 14.0 mph22.5 kmh 21.0 mph33.8 kmh - -
Humidity 93% 94% 54% 75%
Pressure 29.87 in1011.5 mb 29.87 in1011.5 mb 29.71 in1006.1 mb -
Hour Temp Dew Point Humidity Winds Wind Gusts Pressure Precip Precip Rate Daily Precip Total
07:30 AM 39.8°F4.3°C 37.9°F3.3°C 93% 6.0 mph NNW9.7 kmh NNW 14.0 mph22.5 kmh 29.87 in1011.5 mb 0.00 in0.0 mm 0.00 in0.0 mm 0.00 in0.0 mm
07:15 AM 40.0°F4.4°C 38.4°F3.6°C 94% 4.0 mph NW6.4 kmh NW 10.0 mph16.1 kmh 29.86 in1011.2 mb 0.00 in0.0 mm 0.00 in0.0 mm 0.00 in0.0 mm
07:00 AM 39.9°F4.4°C 38.3°F3.5°C 94% 5.0 mph NNW8.0 kmh NNW 11.0 mph17.7 kmh 29.85 in1010.8 mb 0.00 in0.0 mm 0.00 in0.0 mm 0.00 in0.0 mm
06:45 AM 39.9°F4.4°C 38.3°F3.5°C 94% 5.0 mph NW8.0 kmh NW 12.0 mph19.3 kmh 29.84 in1010.5 mb 0.00 in0.0 mm 0.00 in0.0 mm 0.00 in0.0 mm
06:30 AM 39.8°F4.3°C 38.2°F3.4°C 94% 4.0 mph N6.4 kmh N 9.0 mph14.5 kmh 29.83 in1010.2 mb 0.00 in0.0 mm 0.00 in0.0 mm 0.00 in0.0 mm
06:15 AM 39.5°F4.2°C 37.6°F3.1°C 93% 2.0 mph NNW3.2 kmh NNW 10.0 mph16.1 kmh 29.82 in1009.8 mb 0.00 in0.0 mm 0.00 in0.0 mm 0.00 in0.0 mm
06:00 AM 39.3°F4.1°C 37.4°F3.0°C 93% 4.0 mph N6.4 kmh N 10.0 mph16.1 kmh 29.81 in1009.5 mb 0.00 in0.0 mm 0.00 in0.0 mm 0.00 in0.0 mm
05:45 AM 39.1°F3.9°C 37.0°F2.8°C 92% 4.0 mph N6.4 kmh N 9.0 mph14.5 kmh 29.80 in1009.1 mb 0.00 in0.0 mm 0.00 in0.0 mm 0.00 in0.0 mm
05:30 AM 38.9°F3.8°C 36.5°F2.5°C 91% 3.0 mph N4.8 kmh N 8.0 mph12.9 kmh 29.79 in1008.8 mb 0.00 in0.0 mm 0.00 in0.0 mm 0.00 in0.0 mm
05:15 AM 38.9°F3.8°C 36.2°F2.3°C 90% 6.0 mph N9.7 kmh N 12.0 mph19.3 kmh 29.79 in1008.8 mb 0.00 in0.0 mm 0.00 in0.0 mm 0.00 in0.0 mm
05:00 AM 39.0°F3.9°C 36.0°F2.2°C 89% 7.0 mph N11.3 kmh N 16.0 mph25.7 kmh 29.78 in1008.5 mb 0.00 in0.0 mm 0.00 in0.0 mm 0.00 in0.0 mm
04:45 AM 39.5°F4.2°C 36.0°F2.2°C 87% 5.0 mph NNW8.0 kmh NNW 12.0 mph19.3 kmh 29.77 in1008.1 mb 0.00 in0.0 mm 0.00 in0.0 mm 0.00 in0.0 mm
04:30 AM 40.3°F4.6°C 36.1°F2.3°C 85% 5.0 mph NNW8.0 kmh NNW 11.0 mph17.7 kmh 29.76 in1007.8 mb 0.00 in0.0 mm 0.00 in0.0 mm 0.00 in0.0 mm
04:15 AM 41.7°F5.4°C 36.3°F2.4°C 81% 6.0 mph NW9.7 kmh NW 14.0 mph22.5 kmh 29.75 in1007.5 mb 0.00 in0.0 mm 0.00 in0.0 mm 0.00 in0.0 mm
04:00 AM 43.3°F6.3°C 36.6°F2.6°C 77% 5.0 mph NW8.0 kmh NW 10.0 mph16.1 kmh 29.74 in1007.1 mb 0.00 in0.0 mm 0.00 in0.0 mm 0.00 in0.0 mm
03:45 AM 44.0°F6.7°C 36.2°F2.3°C 74% 1.0 mph WNW1.6 kmh WNW 4.0 mph6.4 kmh 29.72 in1006.4 mb 0.00 in0.0 mm 0.00 in0.0 mm 0.00 in0.0 mm
03:30 AM 46.0°F7.8°C 36.0°F2.2°C 68% Calm Calm 1.0 mph1.6 kmh 29.71 in1006.1 mb 0.00 in0.0 mm 0.00 in0.0 mm 0.00 in0.0 mm
03:15 AM 47.5°F8.6°C 36.7°F2.6°C 66% 1.0 mph WSW1.6 kmh WSW 5.0 mph8.0 kmh 29.71 in1006.1 mb 0.00 in0.0 mm 0.00 in0.0 mm 0.00 in0.0 mm
03:00 AM 48.6°F9.2°C 37.0°F2.8°C 64% 2.0 mph W3.2 kmh W 6.0 mph9.7 kmh 29.71 in1006.1 mb 0.00 in0.0 mm 0.00 in0.0 mm 0.00 in0.0 mm
02:45 AM 49.8°F9.9°C 37.3°F2.9°C 62% 4.0 mph WSW6.4 kmh WSW 13.0 mph20.9 kmh 29.72 in1006.4 mb 0.00 in0.0 mm 0.00 in0.0 mm 0.00 in0.0 mm
02:30 AM 49.9°F9.9°C 37.4°F3.0°C 62% 6.0 mph WSW9.7 kmh WSW 15.0 mph24.1 kmh 29.73 in1006.8 mb 0.00 in0.0 mm 0.00 in0.0 mm 0.00 in0.0 mm
02:15 AM 50.2°F10.1°C 36.4°F2.4°C 59% 2.0 mph WNW3.2 kmh WNW 9.0 mph14.5 kmh 29.73 in1006.8 mb 0.00 in0.0 mm 0.00 in0.0 mm 0.00 in0.0 mm
02:00 AM 51.7°F10.9°C 36.9°F2.7°C 57% 4.0 mph NW6.4 kmh NW 11.0 mph17.7 kmh 29.73 in1006.8 mb 0.00 in0.0 mm 0.00 in0.0 mm 0.00 in0.0 mm
01:45 AM 52.6°F11.4°C 36.9°F2.7°C 55% 8.0 mph SW12.9 kmh SW 19.0 mph30.6 kmh 29.71 in1006.1 mb 0.00 in0.0 mm 0.00 in0.0 mm 0.00 in0.0 mm
01:30 AM 53.0°F11.7°C 36.8°F2.7°C 54% 10.0 mph SW16.1 kmh SW 21.0 mph33.8 kmh 29.71 in1006.1 mb 0.00 in0.0 mm 0.00 in0.0 mm 0.00 in0.0 mm
01:15 AM 52.5°F11.4°C 36.3°F2.4°C 54% 8.0 mph SW12.9 kmh SW 17.0 mph27.4 kmh 29.71 in1006.1 mb 0.00 in0.0 mm 0.00 in0.0 mm 0.00 in0.0 mm
01:00 AM 51.4°F10.8°C 36.2°F2.3°C 56% 5.0 mph SW8.0 kmh SW 17.0 mph27.4 kmh 29.72 in1006.4 mb 0.00 in0.0 mm 0.00 in0.0 mm 0.00 in0.0 mm
12:45 AM 50.5°F10.3°C 36.3°F2.4°C 58% 5.0 mph SW8.0 kmh SW 15.0 mph24.1 kmh 29.72 in1006.4 mb 0.00 in0.0 mm 0.00 in0.0 mm 0.00 in0.0 mm
12:30 AM 49.0°F9.4°C 36.1°F2.3°C 61% 5.0 mph SSW8.0 kmh SSW 16.0 mph25.7 kmh 29.72 in1006.4 mb 0.00 in0.0 mm 0.00 in0.0 mm 0.00 in0.0 mm
12:15 AM 47.3°F8.5°C 36.1°F2.3°C 65% 3.0 mph SSW4.8 kmh SSW 9.0 mph14.5 kmh 29.73 in1006.8 mb 0.00 in0.0 mm 0.00 in0.0 mm 0.00 in0.0 mm
12:00 AM 47.1°F8.4°C 35.9°F2.2°C 65% 2.0 mph S3.2 kmh S 8.0 mph12.9 kmh 29.74 in1007.1 mb 0.00 in0.0 mm 0.00 in0.0 mm 0.00 in0.0 mm